Terminal Aerodrome Forecast
Issued by NWS

Current Version | Previous Version | Text Only | Print | Product List | Glossary On
Versions: 1 2 3 4 5 6 7 8 9 10 11 12 13
000
FTUS42 KMLB 300500
TAFSUA
TAF
KSUA 300529Z 3006/0106 19004KT P6SM FEW020 SCT120
     FM300900 23005KT P6SM SCT010 SCT120
      TEMPO 3010/3012 5SM BR BKN010
     FM301200 26007KT P6SM VCSH SCT010 BKN020
     FM301600 27007KT P6SM VCSH SCT010 OVC035
      TEMPO 3016/3020 3SM SHRA BKN025
     FM302100 29008KT P6SM SCT020 OVC040
      TEMPO 3021/3023 2SM SHRA BKN020
     FM010000 29006KT P6SM VCSH SCT020 BKN080=

USA.gov is the U.S. government's official web portal to all federal, state and local government web resources and services.